createdAt,value
2022-12-17T00:01:52.770Z,53.35
2022-12-17T00:04:38.966Z,53.70
2022-12-17T00:07:23.997Z,55.33
2022-12-17T00:10:09.196Z,58.35
2022-12-17T00:12:56.336Z,54.17
2022-12-17T00:15:41.655Z,57.10
2022-12-17T00:18:28.179Z,57.85
2022-12-17T00:21:15.189Z,55.13
2022-12-17T00:24:00.493Z,53.95
2022-12-17T00:26:45.666Z,56.70
2022-12-17T00:29:30.939Z,55.45
2022-12-17T00:32:16.802Z,55.33
2022-12-17T00:35:02.182Z,55.15
2022-12-17T00:37:47.594Z,54.80
2022-12-17T00:40:32.961Z,54.35
2022-12-17T00:43:29.921Z,51.28
2022-12-17T00:46:16.055Z,50.20
2022-12-17T00:49:01.238Z,49.03
2022-12-17T00:51:46.766Z,48.00
2022-12-17T00:54:31.885Z,48.15
2022-12-17T00:57:17.451Z,49.08
2022-12-17T01:00:02.447Z,44.95
2022-12-17T01:02:47.734Z,45.38
2022-12-17T01:05:42.315Z,44.05
2022-12-17T01:08:32.431Z,43.67
2022-12-17T01:11:27.182Z,42.03
2022-12-17T01:14:12.914Z,43.60
2022-12-17T01:16:57.854Z,35.83
2022-12-17T01:19:42.966Z,35.20
2022-12-17T01:22:28.701Z,35.75
2022-12-17T01:25:13.532Z,37.50
2022-12-17T01:27:58.717Z,36.40
2022-12-17T01:30:45.206Z,31.05
2022-12-17T01:33:30.257Z,30.33
2022-12-17T01:36:17.042Z,31.58
2022-12-17T01:39:02.000Z,30.98
2022-12-17T01:41:47.392Z,26.33
2022-12-17T01:44:57.787Z,28.98
2022-12-17T01:47:48.646Z,26.30
2022-12-17T01:50:36.079Z,24.65
2022-12-17T01:53:24.705Z,25.70
2022-12-17T01:56:11.098Z,24.83
2022-12-17T01:58:57.832Z,22.58
2022-12-17T02:01:42.844Z,22.17
2022-12-17T02:04:28.678Z,23.02
2022-12-17T02:07:31.296Z,21.67
2022-12-17T02:10:44.799Z,22.98
2022-12-17T02:13:37.425Z,20.27
2022-12-17T02:16:29.100Z,20.60
2022-12-17T02:19:20.784Z,20.85
2022-12-17T02:22:11.558Z,18.63
2022-12-17T02:25:18.001Z,20.27
2022-12-17T02:28:03.502Z,18.48
2022-12-17T02:30:50.335Z,20.65
2022-12-17T02:33:36.350Z,16.00
2022-12-17T02:36:24.828Z,18.10
2022-12-17T02:39:10.659Z,18.25
2022-12-17T02:42:06.008Z,18.27
2022-12-17T02:44:56.115Z,18.05
2022-12-17T02:47:43.007Z,18.60
2022-12-17T02:50:29.372Z,18.25
2022-12-17T02:53:18.446Z,19.75
2022-12-17T02:56:03.859Z,20.52
2022-12-17T02:58:51.670Z,19.35
2022-12-17T03:01:37.077Z,20.00
2022-12-17T03:04:22.935Z,17.52
2022-12-17T03:07:07.968Z,18.10
2022-12-17T03:09:53.123Z,19.55
2022-12-17T03:12:39.579Z,18.83
2022-12-17T03:15:24.994Z,19.85
2022-12-17T03:18:09.936Z,19.63
2022-12-17T03:20:54.919Z,20.60
2022-12-17T03:23:39.860Z,19.38
2022-12-17T03:26:25.412Z,20.02
2022-12-17T03:29:10.422Z,17.63
2022-12-17T03:31:55.376Z,17.85
2022-12-17T03:34:40.255Z,18.55
2022-12-17T03:37:25.467Z,17.20
2022-12-17T03:40:10.387Z,15.88
2022-12-17T03:42:55.206Z,17.20
2022-12-17T03:45:40.161Z,16.23
2022-12-17T03:48:27.878Z,17.08
2022-12-17T03:51:13.381Z,17.30
2022-12-17T03:53:58.852Z,17.77
2022-12-17T03:56:44.188Z,17.67
2022-12-17T03:59:30.245Z,17.58
2022-12-17T04:02:15.834Z,19.05
2022-12-17T04:05:00.867Z,18.58
2022-12-17T04:07:46.253Z,18.13
2022-12-17T04:10:31.560Z,19.73
2022-12-17T04:13:16.545Z,17.17
2022-12-17T04:16:14.405Z,17.67
2022-12-17T04:18:59.570Z,18.52
2022-12-17T04:21:44.456Z,16.83
2022-12-17T04:24:29.425Z,16.38
2022-12-17T04:27:14.287Z,16.88
2022-12-17T04:29:59.227Z,16.38
2022-12-17T04:32:44.046Z,17.48
2022-12-17T04:35:28.953Z,17.80
2022-12-17T04:38:13.775Z,18.33
2022-12-17T04:40:58.774Z,18.02
2022-12-17T04:43:43.738Z,17.52
2022-12-17T04:46:28.625Z,19.80
2022-12-17T04:49:16.535Z,18.55
2022-12-17T04:52:01.500Z,19.85
2022-12-17T04:54:46.322Z,20.08
2022-12-17T04:57:31.305Z,20.52
2022-12-17T05:00:16.098Z,20.60
2022-12-17T05:03:01.420Z,20.35
2022-12-17T05:05:46.729Z,19.40
2022-12-17T05:08:34.568Z,21.17
2022-12-17T05:11:23.554Z,20.67
2022-12-17T05:14:08.473Z,20.92
2022-12-17T05:17:08.887Z,20.67
2022-12-17T05:19:53.717Z,21.03
2022-12-17T05:22:38.627Z,21.17
2022-12-17T05:25:25.805Z,21.35
2022-12-17T05:28:10.640Z,22.10
2022-12-17T05:30:59.939Z,20.42
2022-12-17T05:33:46.708Z,19.90
2022-12-17T05:36:31.602Z,22.05
2022-12-17T05:39:16.581Z,22.20
2022-12-17T05:42:01.425Z,20.13
2022-12-17T05:44:46.262Z,22.27
2022-12-17T05:47:31.128Z,19.02
2022-12-17T05:50:17.045Z,20.63
2022-12-17T05:53:02.054Z,21.13
2022-12-17T05:55:46.991Z,22.95
2022-12-17T05:58:32.211Z,21.63
2022-12-17T06:01:19.267Z,22.20
2022-12-17T06:04:04.632Z,22.05
2022-12-17T06:06:50.996Z,20.65
2022-12-17T06:09:36.738Z,21.75
2022-12-17T06:12:22.190Z,20.35
2022-12-17T06:15:07.581Z,20.83
2022-12-17T06:17:52.635Z,23.40
2022-12-17T06:20:37.790Z,22.08
2022-12-17T06:23:30.230Z,21.73
2022-12-17T06:26:16.350Z,22.45
2022-12-17T06:29:02.507Z,21.90
2022-12-17T06:31:47.848Z,21.42
2022-12-17T06:34:33.043Z,23.40
2022-12-17T06:37:18.327Z,22.88
2022-12-17T06:40:03.175Z,23.38
2022-12-17T06:42:48.134Z,22.70
2022-12-17T06:45:32.989Z,22.80
2022-12-17T06:48:27.099Z,22.00
2022-12-17T06:51:13.383Z,23.38
2022-12-17T06:53:59.334Z,23.27
2022-12-17T06:56:44.135Z,24.85
2022-12-17T06:59:29.534Z,23.98
2022-12-17T07:02:14.616Z,24.35
2022-12-17T07:04:59.812Z,24.80
2022-12-17T07:07:44.860Z,25.77
2022-12-17T07:10:30.062Z,27.70
2022-12-17T07:13:34.078Z,23.55
2022-12-17T07:16:19.418Z,23.65
2022-12-17T07:19:07.515Z,24.27
2022-12-17T07:21:52.394Z,24.77
2022-12-17T07:24:37.575Z,25.60
2022-12-17T07:27:22.427Z,25.48
2022-12-17T07:30:07.483Z,25.30
2022-12-17T07:32:52.437Z,25.77
2022-12-17T07:35:37.453Z,27.00
2022-12-17T07:38:23.593Z,26.17
2022-12-17T07:41:09.009Z,25.02
2022-12-17T07:43:54.102Z,26.83
2022-12-17T07:46:39.517Z,26.35
2022-12-17T07:49:26.051Z,27.20
2022-12-17T07:52:11.419Z,28.42
2022-12-17T07:54:56.542Z,29.63
2022-12-17T07:57:41.358Z,27.85
2022-12-17T08:00:26.782Z,27.52
2022-12-17T08:03:16.182Z,28.60
2022-12-17T08:06:10.799Z,29.38
2022-12-17T08:08:55.658Z,28.00
2022-12-17T08:11:40.477Z,28.70
2022-12-17T08:14:25.381Z,30.50
2022-12-17T08:20:19.899Z,28.88
2022-12-17T08:23:04.895Z,26.85
2022-12-17T08:25:49.927Z,28.67
2022-12-17T08:28:50.084Z,28.95
2022-12-17T08:31:35.733Z,29.92
2022-12-17T08:34:20.616Z,30.67
2022-12-17T08:37:05.611Z,28.40
2022-12-17T08:39:50.436Z,29.98
2022-12-17T08:42:35.433Z,30.02
2022-12-17T08:45:20.277Z,29.67
2022-12-17T08:48:05.245Z,29.48
2022-12-17T08:50:50.327Z,29.98
2022-12-17T08:53:35.481Z,29.67
2022-12-17T08:56:20.984Z,31.42
2022-12-17T08:59:05.824Z,30.80
2022-12-17T09:01:50.762Z,30.08
2022-12-17T09:04:35.871Z,30.60
2022-12-17T09:07:20.823Z,31.55
2022-12-17T09:10:05.756Z,31.02
2022-12-17T09:12:50.569Z,31.92
2022-12-17T09:15:35.482Z,34.08
2022-12-17T09:18:20.629Z,31.80
2022-12-17T09:21:13.582Z,31.90
2022-12-17T09:23:59.446Z,31.95
2022-12-17T09:26:44.156Z,33.75
2022-12-17T09:29:29.124Z,32.08
2022-12-17T09:32:14.223Z,33.15
2022-12-17T09:35:03.768Z,31.17
2022-12-17T09:37:48.916Z,28.92
2022-12-17T09:40:52.140Z,30.27
2022-12-17T09:43:45.022Z,31.17
2022-12-17T09:46:45.312Z,31.90
2022-12-17T09:49:40.183Z,30.58
2022-12-17T09:52:38.173Z,30.35
2022-12-17T09:55:33.960Z,27.95
2022-12-17T09:58:19.660Z,29.25
2022-12-17T10:01:08.170Z,27.55
2022-12-17T10:03:54.889Z,29.55
2022-12-17T10:06:46.635Z,31.65
2022-12-17T10:09:34.384Z,29.83
2022-12-17T10:12:30.641Z,30.33
2022-12-17T10:15:15.626Z,30.33
2022-12-17T10:18:00.848Z,30.08
2022-12-17T10:21:19.928Z,31.67
2022-12-17T10:24:05.159Z,31.40
2022-12-17T10:26:53.347Z,32.33
2022-12-17T10:29:47.772Z,32.88
2022-12-17T10:32:33.126Z,31.15
2022-12-17T10:35:20.502Z,28.98
2022-12-17T10:38:05.371Z,30.20
2022-12-17T10:40:51.808Z,29.75
2022-12-17T10:43:51.024Z,30.48
2022-12-17T10:46:47.699Z,28.85
2022-12-17T10:49:36.813Z,30.83
2022-12-17T10:52:48.062Z,30.40
2022-12-17T10:55:46.945Z,30.83
2022-12-17T10:58:35.174Z,33.90
2022-12-17T11:01:21.649Z,32.28
2022-12-17T11:04:12.275Z,30.90
2022-12-17T11:07:09.852Z,31.92
2022-12-17T11:10:10.658Z,32.83
2022-12-17T11:13:04.942Z,30.42
2022-12-17T11:16:10.247Z,32.08
2022-12-17T11:19:03.600Z,34.42
2022-12-17T11:22:09.361Z,33.42
2022-12-17T11:25:16.200Z,32.10
2022-12-17T11:28:06.374Z,31.98
2022-12-17T11:31:07.648Z,32.05
2022-12-17T11:37:01.026Z,28.52
2022-12-17T11:40:01.883Z,31.45
2022-12-17T11:42:56.014Z,29.27
2022-12-17T11:45:50.280Z,32.40
2022-12-17T11:48:49.085Z,30.88
2022-12-17T11:51:52.961Z,28.33
2022-12-17T11:54:52.275Z,28.77
2022-12-17T11:57:45.436Z,30.20
2022-12-17T12:00:39.217Z,29.65
2022-12-17T12:03:33.059Z,29.40
2022-12-17T12:06:19.929Z,29.50
2022-12-17T12:09:32.559Z,28.30
2022-12-17T12:12:51.699Z,29.38
2022-12-17T12:15:36.750Z,28.38
2022-12-17T12:19:09.317Z,32.60
2022-12-17T12:22:02.662Z,31.05
2022-12-17T12:25:05.923Z,31.77
2022-12-17T12:28:14.436Z,30.45
2022-12-17T12:31:43.989Z,32.40
2022-12-17T12:34:43.254Z,31.30
2022-12-17T12:37:33.792Z,32.17
2022-12-17T12:40:34.102Z,31.43
2022-12-17T12:43:29.259Z,33.90
2022-12-17T12:46:24.602Z,28.85
2022-12-17T12:49:16.474Z,29.90
2022-12-17T12:52:01.952Z,28.67
2022-12-17T12:54:51.372Z,30.20
2022-12-17T12:57:57.411Z,31.20
2022-12-17T13:00:58.081Z,30.67
2022-12-17T13:03:48.837Z,29.60
2022-12-17T13:06:40.500Z,30.13
2022-12-17T13:09:15.894Z,31.95
2022-12-17T13:11:44.947Z,31.05
2022-12-17T13:14:19.393Z,28.83
2022-12-17T13:16:48.645Z,30.88
2022-12-17T13:19:20.969Z,30.42
2022-12-17T13:21:47.888Z,31.67
2022-12-17T13:24:26.820Z,29.33
2022-12-17T13:26:53.710Z,31.90
2022-12-17T13:29:33.602Z,31.48
2022-12-17T13:32:38.617Z,31.48
2022-12-17T13:35:23.953Z,28.15
2022-12-17T13:38:05.241Z,29.23
2022-12-17T13:41:10.415Z,30.02
2022-12-17T13:43:43.967Z,30.70
2022-12-17T13:46:29.792Z,32.67
2022-12-17T13:48:59.213Z,31.98
2022-12-17T13:51:28.482Z,31.77
2022-12-17T13:53:57.819Z,31.38
2022-12-17T13:56:27.634Z,31.63
2022-12-17T13:58:56.274Z,32.42
2022-12-17T14:01:23.135Z,33.55
2022-12-17T14:04:06.373Z,32.72
2022-12-17T14:06:36.231Z,32.00
2022-12-17T14:09:03.696Z,34.00
2022-12-17T14:11:49.995Z,35.15
2022-12-17T14:14:27.344Z,34.72
2022-12-17T14:16:55.009Z,34.40
2022-12-17T14:19:22.410Z,35.67
2022-12-17T14:21:48.963Z,36.85
2022-12-17T14:24:18.798Z,34.38
2022-12-17T14:26:52.848Z,36.03
2022-12-17T14:29:25.472Z,37.50
2022-12-17T14:31:57.829Z,37.33
2022-12-17T14:34:24.977Z,35.47
2022-12-17T14:36:59.559Z,36.20
2022-12-17T14:39:31.572Z,33.05
2022-12-17T14:42:25.431Z,33.97
2022-12-17T14:45:06.247Z,32.78
2022-12-17T14:47:34.956Z,38.65
2022-12-17T14:50:10.170Z,37.10
2022-12-17T14:52:45.319Z,34.35
2022-12-17T14:55:23.757Z,33.20
2022-12-17T14:57:54.825Z,33.88
2022-12-17T15:02:52.489Z,29.48
2022-12-17T15:05:19.192Z,32.88
2022-12-17T15:07:45.726Z,33.75
2022-12-17T15:10:14.837Z,32.28
2022-12-17T15:12:42.646Z,32.42
2022-12-17T15:15:13.503Z,29.92
2022-12-17T15:17:39.929Z,31.23
2022-12-17T15:20:19.246Z,31.95
2022-12-17T15:22:46.537Z,30.30
2022-12-17T15:25:14.054Z,29.75
2022-12-17T15:27:40.537Z,29.13
2022-12-17T15:30:07.767Z,30.50
2022-12-17T15:32:34.148Z,32.35
2022-12-17T15:35:00.529Z,34.08
2022-12-17T15:37:26.913Z,31.27
2022-12-17T15:39:53.317Z,34.63
2022-12-17T15:42:38.301Z,40.35
2022-12-17T15:45:05.240Z,36.90
2022-12-17T15:47:31.658Z,34.03
2022-12-17T15:49:58.069Z,33.72
2022-12-17T15:52:24.467Z,33.33
2022-12-17T15:54:50.872Z,36.30
2022-12-17T15:57:18.859Z,37.17
2022-12-17T15:59:45.422Z,34.97
2022-12-17T16:02:12.149Z,36.85
2022-12-17T16:04:38.697Z,34.58
2022-12-17T16:07:05.699Z,35.30
2022-12-17T16:09:32.140Z,34.88
2022-12-17T16:11:58.536Z,34.42
2022-12-17T16:14:25.022Z,37.53
2022-12-17T16:16:52.041Z,38.42
2022-12-17T16:19:18.552Z,35.45
2022-12-17T16:21:48.857Z,39.20
2022-12-17T16:24:15.323Z,36.40
2022-12-17T16:26:41.978Z,38.50
2022-12-17T16:29:08.450Z,33.95
2022-12-17T16:31:34.916Z,34.33
2022-12-17T16:34:01.416Z,33.47
2022-12-17T16:36:27.829Z,55.17
2022-12-17T16:38:54.882Z,36.75
2022-12-17T16:41:22.370Z,32.33
2022-12-17T16:43:49.010Z,30.42
2022-12-17T16:46:34.141Z,31.73
2022-12-17T16:49:22.398Z,31.58
2022-12-17T16:51:53.928Z,31.05
2022-12-17T16:54:24.016Z,29.63
2022-12-17T16:56:50.423Z,30.20
2022-12-17T16:59:17.882Z,30.77
2022-12-17T17:01:47.409Z,30.98
2022-12-17T17:04:15.205Z,28.48
2022-12-17T17:06:45.097Z,28.33
2022-12-17T17:09:12.438Z,25.63
2022-12-17T17:11:39.473Z,28.20
2022-12-17T17:14:06.954Z,27.77
2022-12-17T17:16:34.511Z,27.63
2022-12-17T17:19:01.685Z,29.38
2022-12-17T17:21:29.433Z,28.70
2022-12-17T17:23:59.745Z,29.75
2022-12-17T17:26:28.130Z,30.88
2022-12-17T17:28:54.977Z,28.98
2022-12-17T17:31:26.717Z,31.98
2022-12-17T17:33:57.130Z,34.05
2022-12-17T17:36:29.639Z,34.65
2022-12-17T17:38:58.726Z,30.45
2022-12-17T17:41:28.185Z,32.50
2022-12-17T17:44:00.241Z,32.38
2022-12-17T17:46:28.575Z,32.75
2022-12-17T17:48:57.305Z,31.70
2022-12-17T17:51:59.937Z,33.55
2022-12-17T17:54:14.548Z,31.75
2022-12-17T17:56:42.199Z,31.73
2022-12-17T17:59:14.547Z,33.85
2022-12-17T18:01:47.962Z,32.03
2022-12-17T18:04:18.442Z,36.67
2022-12-17T18:07:09.058Z,32.55
2022-12-17T18:09:34.228Z,32.25
2022-12-17T18:12:22.088Z,31.67
2022-12-17T18:15:12.731Z,30.45
2022-12-17T18:17:35.102Z,31.45
2022-12-17T18:20:01.508Z,35.05
2022-12-17T18:22:28.994Z,31.17
2022-12-17T18:24:55.411Z,29.17
2022-12-17T18:27:27.900Z,28.80
2022-12-17T18:29:54.311Z,30.40
2022-12-17T18:32:20.733Z,27.85
2022-12-17T18:34:47.266Z,29.75
2022-12-17T18:37:13.709Z,32.63
2022-12-17T18:39:40.133Z,32.97
2022-12-17T18:42:25.177Z,29.23
2022-12-17T18:44:51.650Z,26.88
2022-12-17T18:47:18.884Z,28.52
2022-12-17T18:49:45.394Z,28.55
2022-12-17T18:52:17.073Z,30.30
2022-12-17T18:54:43.883Z,30.92
2022-12-17T18:57:10.398Z,29.88
2022-12-17T18:59:37.438Z,35.42
2022-12-17T19:02:04.233Z,35.55
2022-12-17T19:04:32.841Z,31.63
2022-12-17T19:06:59.413Z,31.90
2022-12-17T19:09:29.078Z,35.22
2022-12-17T19:11:56.498Z,30.38
2022-12-17T19:14:26.686Z,31.52
2022-12-17T19:16:55.284Z,29.57
2022-12-17T19:19:22.456Z,32.45
2022-12-17T19:21:51.938Z,35.25
2022-12-17T19:24:21.006Z,32.08
2022-12-17T19:26:48.614Z,30.02
2022-12-17T19:29:16.451Z,29.52
2022-12-17T19:31:46.277Z,30.63
2022-12-17T19:34:14.846Z,29.13
2022-12-17T19:36:42.498Z,27.23
2022-12-17T19:39:14.912Z,28.25
2022-12-17T19:41:41.449Z,27.52
2022-12-17T19:44:11.332Z,26.02
2022-12-17T19:46:38.088Z,26.25
2022-12-17T19:49:04.759Z,27.20
2022-12-17T19:51:32.455Z,25.15
2022-12-17T19:54:04.726Z,26.40
2022-12-17T19:56:33.493Z,28.60
2022-12-17T19:59:02.118Z,24.45
2022-12-17T20:01:30.993Z,27.65
2022-12-17T20:03:58.703Z,27.67
2022-12-17T20:06:27.892Z,28.17
2022-12-17T20:08:54.530Z,27.67
2022-12-17T20:11:36.301Z,27.77
2022-12-17T20:14:13.309Z,28.38
2022-12-17T20:16:52.147Z,27.00
2022-12-17T20:19:27.522Z,28.23
2022-12-17T20:21:54.910Z,27.48
2022-12-17T20:24:27.146Z,27.98
2022-12-17T20:26:57.125Z,27.85
2022-12-17T20:29:28.180Z,29.20
2022-12-17T20:32:01.147Z,27.27
2022-12-17T20:34:27.628Z,28.58
2022-12-17T20:36:56.748Z,26.48
2022-12-17T20:39:28.159Z,29.75
2022-12-17T20:41:55.496Z,29.48
2022-12-17T20:44:21.922Z,27.58
2022-12-17T20:46:48.388Z,27.58
2022-12-17T20:49:14.851Z,27.95
2022-12-17T20:51:41.480Z,28.20
2022-12-17T20:54:08.428Z,27.58
2022-12-17T20:56:35.521Z,28.60
2022-12-17T20:59:07.228Z,26.52
2022-12-17T21:01:35.970Z,27.17
2022-12-17T21:04:03.669Z,25.58
2022-12-17T21:06:35.787Z,26.30
2022-12-17T21:09:03.275Z,25.35
2022-12-17T21:11:32.561Z,25.73
2022-12-17T21:14:01.762Z,27.20
2022-12-17T21:18:59.613Z,22.10
2022-12-17T21:21:31.556Z,22.95
2022-12-17T21:23:59.015Z,24.23
2022-12-17T21:26:29.246Z,26.10
2022-12-17T21:28:59.486Z,24.10
2022-12-17T21:31:35.367Z,18.40
2022-12-17T21:34:04.610Z,23.48
2022-12-17T21:36:32.955Z,25.63
2022-12-17T21:39:00.392Z,26.00
2022-12-17T21:41:31.586Z,24.67
2022-12-17T21:44:01.487Z,24.90
2022-12-17T21:46:29.043Z,25.15
2022-12-17T21:48:57.262Z,27.10
2022-12-17T21:51:23.893Z,24.67
2022-12-17T21:53:55.357Z,27.58
2022-12-17T21:56:22.161Z,27.38
2022-12-17T21:58:49.452Z,26.40
2022-12-17T22:01:25.353Z,27.38
2022-12-17T22:03:54.549Z,27.58
2022-12-17T22:06:29.496Z,27.95
2022-12-17T22:09:09.442Z,26.65
2022-12-17T22:11:42.269Z,26.63
2022-12-17T22:14:18.907Z,29.95
2022-12-17T22:16:49.140Z,27.10
2022-12-17T22:19:20.295Z,28.70
2022-12-17T22:21:56.856Z,28.20
2022-12-17T22:24:27.316Z,28.50
2022-12-17T22:27:00.204Z,26.05
2022-12-17T22:29:48.186Z,30.45
2022-12-17T22:32:52.746Z,27.15
2022-12-17T22:36:39.577Z,27.00
2022-12-17T22:42:03.410Z,28.48
2022-12-17T22:44:32.173Z,30.67
2022-12-17T22:44:37.450Z,29.50
2022-12-17T22:46:42.445Z,30.77
2022-12-17T22:49:09.225Z,32.92
2022-12-17T22:51:37.105Z,31.83
2022-12-17T22:54:12.353Z,30.65
2022-12-17T22:57:16.770Z,33.25
2022-12-17T22:59:28.354Z,32.15
2022-12-17T23:01:54.814Z,31.90
2022-12-17T23:04:21.369Z,33.55
2022-12-17T23:06:50.808Z,33.03
2022-12-17T23:09:19.121Z,32.30
2022-12-17T23:11:47.318Z,32.38
2022-12-17T23:14:14.043Z,34.90
2022-12-17T23:16:41.375Z,32.75
2022-12-17T23:19:08.331Z,33.50
2022-12-17T23:21:35.572Z,32.08
2022-12-17T23:24:02.012Z,30.70
2022-12-17T23:26:31.462Z,31.17
2022-12-17T23:29:01.720Z,31.88
2022-12-17T23:31:33.243Z,31.48
2022-12-17T23:33:59.765Z,32.67
2022-12-17T23:36:26.571Z,32.97
2022-12-17T23:38:56.225Z,32.35
2022-12-17T23:41:25.811Z,35.22
2022-12-17T23:43:53.026Z,36.08
2022-12-17T23:46:19.855Z,33.60
2022-12-17T23:48:47.753Z,34.38
2022-12-17T23:51:15.672Z,32.63
2022-12-17T23:53:43.259Z,31.40
2022-12-17T23:56:11.754Z,31.90
2022-12-17T23:58:39.350Z,31.27
